aviador You're here:

LFPB Decoded Metar

PARIS LE BOURGET in FRANCE
Report Time2017-08-24 06:30:00
UTC Time2017-08-24 07:00:18
Flight Rules vfr VFR
Wind360° at 02 kt
W.Decomp.*RWY 03: 1.7 kt HW 1 kt LCW
RWY 07: 0.7 kt HW 1.9 kt LCW
RWY 09: 2 kt LCW
Visibility9999 m
Phenomena:N/A
Clouds:N/A
Expected CloudBase > 800 ft AGL from Temp-Dew spread
CeilingNone
Temp15°C (ISA 0)
Dew Point13°C (88% RH)
QNH1018 hPa
Density Alt295 ft
Elevation213 ft
Report Wrong Elevation
Raw Report
METAR LFPB 240630Z AUTO 36002KT CAVOK 15/13 Q1018 NOSIG=

Extra information for LFPB:More info

Metar Taf Metar & Taf Last 4 Metars F.Rules Stats Wind Profile Meteogram Temp Stats Airport Information Weather charts Add Link Nearby VenuesMetar ALERT Operation Metar Decoded Social comments